sensor_id;sensor_type;location;lat;lon;timestamp;pressure;altitude;pressure_sealevel;temperature;humidity
23176;BME280;19910;42.652;23.332;2023-06-10T00:00:03;94198.69;;;16.87;100.00
23176;BME280;19910;42.652;23.332;2023-06-10T00:02:31;94209.22;;;16.85;100.00
23176;BME280;19910;42.652;23.332;2023-06-10T00:04:57;94212.63;;;16.75;100.00
23176;BME280;19910;42.652;23.332;2023-06-10T00:07:24;94208.78;;;16.80;100.00
23176;BME280;19910;42.652;23.332;2023-06-10T00:09:51;94212.63;;;16.75;100.00
23176;BME280;19910;42.652;23.332;2023-06-10T00:12:19;94216.50;;;16.70;100.00
23176;BME280;19910;42.652;23.332;2023-06-10T00:14:46;94213.75;;;16.67;100.00
23176;BME280;19910;42.652;23.332;2023-06-10T00:17:15;94211.41;;;16.69;100.00
23176;BME280;19910;42.652;23.332;2023-06-10T00:19:42;94212.56;;;16.68;100.00
23176;BME280;19910;42.652;23.332;2023-06-10T00:22:09;94211.38;;;16.65;100.00
23176;BME280;19910;42.652;23.332;2023-06-10T00:24:36;94209.03;;;16.67;100.00
23176;BME280;19910;42.652;23.332;2023-06-10T00:27:03;94208.78;;;16.80;100.00
23176;BME280;19910;42.652;23.332;2023-06-10T00:29:32;94212.72;;;16.86;100.00
23176;BME280;19910;42.652;23.332;2023-06-10T00:31:59;94208.78;;;16.83;100.00
23176;BME280;19910;42.652;23.332;2023-06-10T00:34:25;94221.66;;;16.79;100.00
23176;BME280;19910;42.652;23.332;2023-06-10T00:36:52;94218.84;;;16.72;100.00
23176;BME280;19910;42.652;23.332;2023-06-10T00:39:19;94212.97;;;16.70;100.00
23176;BME280;19910;42.652;23.332;2023-06-10T00:41:46;94218.94;;;16.79;100.00
23176;BME280;19910;42.652;23.332;2023-06-10T00:44:12;94206.13;;;16.90;100.00
23176;BME280;19910;42.652;23.332;2023-06-10T00:46:40;94207.41;;;17.03;100.00
23176;BME280;19910;42.652;23.332;2023-06-10T00:49:08;94215.22;;;17.01;100.00
23176;BME280;19910;42.652;23.332;2023-06-10T00:51:35;94210.56;;;17.05;100.00
23176;BME280;19910;42.652;23.332;2023-06-10T00:54:02;94200.81;;;17.12;100.00
23176;BME280;19910;42.652;23.332;2023-06-10T00:56:29;94208.34;;;17.22;100.00
23176;BME280;19910;42.652;23.332;2023-06-10T00:58:56;94209.16;;;17.26;100.00
23176;BME280;19910;42.652;23.332;2023-06-10T01:01:23;94205.97;;;17.17;100.00
23176;BME280;19910;42.652;23.332;2023-06-10T01:03:52;94200.41;;;17.06;100.00
23176;BME280;19910;42.652;23.332;2023-06-10T01:06:26;94217.63;;;17.07;100.00
23176;BME280;19910;42.652;23.332;2023-06-10T01:09:02;94205.88;;;17.06;100.00
23176;BME280;19910;42.652;23.332;2023-06-10T01:11:36;94213.22;;;16.98;100.00
23176;BME280;19910;42.652;23.332;2023-06-10T01:14:08;94226.50;;;16.96;100.00
23176;BME280;19910;42.652;23.332;2023-06-10T01:16:36;94222.88;;;16.85;100.00
23176;BME280;19910;42.652;23.332;2023-06-10T01:19:07;94219.28;;;16.74;100.00
23176;BME280;19910;42.652;23.332;2023-06-10T01:21:37;94225.84;;;16.69;100.00
23176;BME280;19910;42.652;23.332;2023-06-10T01:24:05;94227.41;;;16.67;100.00
23176;BME280;19910;42.652;23.332;2023-06-10T01:26:34;94225.84;;;16.66;100.00
23176;BME280;19910;42.652;23.332;2023-06-10T01:29:06;94226.72;;;16.77;100.00
23176;BME280;19910;42.652;23.332;2023-06-10T01:31:41;94217.38;;;16.78;100.00
23176;BME280;19910;42.652;23.332;2023-06-10T01:34:10;94222.47;;;16.83;100.00
23176;BME280;19910;42.652;23.332;2023-06-10T01:36:40;94212.81;;;16.96;100.00
23176;BME280;19910;42.652;23.332;2023-06-10T01:39:08;94214.38;;;16.97;100.00
23176;BME280;19910;42.652;23.332;2023-06-10T01:41:37;94219.06;;;16.93;100.00
23176;BME280;19910;42.652;23.332;2023-06-10T01:44:04;94219.72;;;16.80;100.00
23176;BME280;19910;42.652;23.332;2023-06-10T01:46:31;94211.16;;;16.85;100.00
23176;BME280;19910;42.652;23.332;2023-06-10T01:48:58;94218.16;;;16.82;100.00
23176;BME280;19910;42.652;23.332;2023-06-10T01:51:24;94206.50;;;16.89;100.00
23176;BME280;19910;42.652;23.332;2023-06-10T01:53:52;94206.66;;;17.07;100.00
23176;BME280;19910;42.652;23.332;2023-06-10T01:56:19;94201.31;;;17.21;100.00
23176;BME280;19910;42.652;23.332;2023-06-10T01:58:46;94205.63;;;17.22;100.00
23176;BME280;19910;42.652;23.332;2023-06-10T02:01:13;94192.78;;;17.33;100.00
23176;BME280;19910;42.652;23.332;2023-06-10T02:03:40;94189.63;;;17.31;100.00
23176;BME280;19910;42.652;23.332;2023-06-10T02:06:07;94194.28;;;17.27;100.00
23176;BME280;19910;42.652;23.332;2023-06-10T02:08:34;94189.47;;;17.10;100.00
23176;BME280;19910;42.652;23.332;2023-06-10T02:11:02;94189.56;;;17.20;100.00
23176;BME280;19910;42.652;23.332;2023-06-10T02:13:29;94193.47;;;17.19;100.00
23176;BME280;19910;42.652;23.332;2023-06-10T02:15:55;94194.84;;;16.99;100.00
23176;BME280;19910;42.652;23.332;2023-06-10T02:18:22;94186.69;;;17.02;100.00
23176;BME280;19910;42.652;23.332;2023-06-10T02:20:49;94183.56;;;17.04;100.00
23176;BME280;19910;42.652;23.332;2023-06-10T02:23:16;94182.66;;;16.89;100.00
23176;BME280;19910;42.652;23.332;2023-06-10T02:25:43;94184.94;;;16.80;100.00
23176;BME280;19910;42.652;23.332;2023-06-10T02:28:11;94181.06;;;16.85;100.00
23176;BME280;19910;42.652;23.332;2023-06-10T02:30:39;94161.06;;;16.77;100.00
23176;BME280;19910;42.652;23.332;2023-06-10T02:33:06;94171.66;;;16.82;100.00
23176;BME280;19910;42.652;23.332;2023-06-10T02:35:36;94165.03;;;16.83;100.00
23176;BME280;19910;42.652;23.332;2023-06-10T02:38:03;94175.28;;;16.93;100.00
23176;BME280;19910;42.652;23.332;2023-06-10T02:40:30;94169.03;;;16.93;100.00
23176;BME280;19910;42.652;23.332;2023-06-10T02:42:57;94169.03;;;16.96;100.00
23176;BME280;19910;42.652;23.332;2023-06-10T02:45:25;94165.91;;;16.94;100.00
23176;BME280;19910;42.652;23.332;2023-06-10T02:47:52;94174.50;;;16.96;100.00
23176;BME280;19910;42.652;23.332;2023-06-10T02:50:19;94170.94;;;16.89;100.00
23176;BME280;19910;42.652;23.332;2023-06-10T02:52:45;94162.31;;;16.87;100.00
23176;BME280;19910;42.652;23.332;2023-06-10T02:55:12;94164.34;;;16.93;100.00
23176;BME280;19910;42.652;23.332;2023-06-10T02:57:39;94162.88;;;17.07;100.00
23176;BME280;19910;42.652;23.332;2023-06-10T03:00:07;94155.94;;;17.20;100.00
23176;BME280;19910;42.652;23.332;2023-06-10T03:02:37;94157.53;;;17.28;100.00
23176;BME280;19910;42.652;23.332;2023-06-10T03:05:05;94161.41;;;17.20;100.00
23176;BME280;19910;42.652;23.332;2023-06-10T03:07:35;94156.72;;;17.24;100.00
23176;BME280;19910;42.652;23.332;2023-06-10T03:10:03;94159.13;;;17.36;100.00
23176;BME280;19910;42.652;23.332;2023-06-10T03:12:29;94163.94;;;17.53;100.00
23176;BME280;19910;42.652;23.332;2023-06-10T03:14:56;94169.44;;;17.53;100.00
23176;BME280;19910;42.652;23.332;2023-06-10T03:17:23;94171.63;;;17.30;100.00
23176;BME280;19910;42.652;23.332;2023-06-10T03:19:51;94168.50;;;17.28;100.00
23176;BME280;19910;42.652;23.332;2023-06-10T03:22:18;94168.59;;;17.42;100.00
23176;BME280;19910;42.652;23.332;2023-06-10T03:24:45;94168.56;;;17.35;100.00
23176;BME280;19910;42.652;23.332;2023-06-10T03:27:15;94178.34;;;17.39;100.00
23176;BME280;19910;42.652;23.332;2023-06-10T03:29:43;94183.38;;;17.30;100.00
23176;BME280;19910;42.652;23.332;2023-06-10T03:32:10;94191.41;;;17.05;100.00
23176;BME280;19910;42.652;23.332;2023-06-10T03:34:37;94197.84;;;16.83;100.00
23176;BME280;19910;42.652;23.332;2023-06-10T03:37:05;94198.53;;;16.73;100.00
23176;BME280;19910;42.652;23.332;2023-06-10T03:39:32;94200.50;;;16.73;100.00
23176;BME280;19910;42.652;23.332;2023-06-10T03:41:59;94201.63;;;16.68;100.00
23176;BME280;19910;42.652;23.332;2023-06-10T03:44:26;94196.97;;;16.72;100.00
23176;BME280;19910;42.652;23.332;2023-06-10T03:46:53;94199.44;;;16.84;100.00
23176;BME280;19910;42.652;23.332;2023-06-10T03:49:20;94191.34;;;16.98;100.00
23176;BME280;19910;42.652;23.332;2023-06-10T03:51:51;94196.53;;;17.14;100.00
23176;BME280;19910;42.652;23.332;2023-06-10T03:54:19;94195.88;;;17.28;100.00
23176;BME280;19910;42.652;23.332;2023-06-10T03:56:45;94193.25;;;17.46;100.00
23176;BME280;19910;42.652;23.332;2023-06-10T03:59:13;94198.28;;;17.40;100.00
23176;BME280;19910;42.652;23.332;2023-06-10T04:01:40;94190.53;;;17.46;100.00
23176;BME280;19910;42.652;23.332;2023-06-10T04:04:09;94183.47;;;17.45;100.00
23176;BME280;19910;42.652;23.332;2023-06-10T04:06:35;94187.34;;;17.40;100.00
23176;BME280;19910;42.652;23.332;2023-06-10T04:09:02;94191.31;;;17.46;100.00
23176;BME280;19910;42.652;23.332;2023-06-10T04:11:31;94192.47;;;17.45;100.00
23176;BME280;19910;42.652;23.332;2023-06-10T04:13:58;94195.25;;;17.49;100.00
23176;BME280;19910;42.652;23.332;2023-06-10T04:16:25;94198.38;;;17.54;100.00
23176;BME280;19910;42.652;23.332;2023-06-10T04:18:51;94196.00;;;17.46;100.00
23176;BME280;19910;42.652;23.332;2023-06-10T04:21:18;94202.59;;;17.41;100.00
23176;BME280;19910;42.652;23.332;2023-06-10T04:23:45;94208.84;;;17.38;100.00
23176;BME280;19910;42.652;23.332;2023-06-10T04:26:12;94209.31;;;17.47;100.00
23176;BME280;19910;42.652;23.332;2023-06-10T04:28:40;94202.22;;;17.42;100.00
23176;BME280;19910;42.652;23.332;2023-06-10T04:31:06;94200.69;;;17.45;100.00
23176;BME280;19910;42.652;23.332;2023-06-10T04:33:33;94196.03;;;17.49;100.00
23176;BME280;19910;42.652;23.332;2023-06-10T04:36:00;94213.91;;;17.36;100.00
23176;BME280;19910;42.652;23.332;2023-06-10T04:38:27;94195.25;;;17.49;100.00
23176;BME280;19910;42.652;23.332;2023-06-10T04:40:53;94203.19;;;17.68;100.00
23176;BME280;19910;42.652;23.332;2023-06-10T04:43:20;94207.03;;;17.60;100.00
23176;BME280;19910;42.652;23.332;2023-06-10T04:45:48;94199.16;;;17.51;100.00
23176;BME280;19910;42.652;23.332;2023-06-10T04:48:15;94200.75;;;17.56;100.00
23176;BME280;19910;42.652;23.332;2023-06-10T04:50:42;94204.78;;;17.72;100.00
23176;BME280;19910;42.652;23.332;2023-06-10T04:53:09;94196.97;;;17.74;100.00
23176;BME280;19910;42.652;23.332;2023-06-10T04:55:36;94190.78;;;17.88;100.00
23176;BME280;19910;42.652;23.332;2023-06-10T04:58:03;94197.47;;;17.98;100.00
23176;BME280;19910;42.652;23.332;2023-06-10T05:00:30;94196.38;;;18.20;100.00
23176;BME280;19910;42.652;23.332;2023-06-10T05:02:58;94194.84;;;18.26;100.00
23176;BME280;19910;42.652;23.332;2023-06-10T05:05:25;94201.38;;;17.97;100.00
23176;BME280;19910;42.652;23.332;2023-06-10T05:07:52;94197.47;;;17.98;100.00
23176;BME280;19910;42.652;23.332;2023-06-10T05:10:18;94199.47;;;18.01;100.00
23176;BME280;19910;42.652;23.332;2023-06-10T05:12:45;94195.59;;;18.13;100.00
23176;BME280;19910;42.652;23.332;2023-06-10T05:15:12;94198.72;;;18.18;100.00
23176;BME280;19910;42.652;23.332;2023-06-10T05:17:39;94190.88;;;18.13;100.00
23176;BME280;19910;42.652;23.332;2023-06-10T05:20:08;94189.34;;;18.16;100.00
23176;BME280;19910;42.652;23.332;2023-06-10T05:22:35;94188.56;;;18.22;100.00
23176;BME280;19910;42.652;23.332;2023-06-10T05:25:01;94187.84;;;18.39;100.00
23176;BME280;19910;42.652;23.332;2023-06-10T05:27:28;94195.75;;;18.62;100.00
23176;BME280;19910;42.652;23.332;2023-06-10T05:29:55;94193.06;;;18.84;100.00
23176;BME280;19910;42.652;23.332;2023-06-10T05:32:22;94200.88;;;18.81;100.00
23176;BME280;19910;42.652;23.332;2023-06-10T05:39:58;94198.13;;;18.78;100.00
23176;BME280;19910;42.652;23.332;2023-06-10T05:42:24;94196.56;;;18.91;100.00
23176;BME280;19910;42.652;23.332;2023-06-10T05:44:51;94184.03;;;19.40;100.00
23176;BME280;19910;42.652;23.332;2023-06-10T05:47:18;94197.34;;;19.70;100.00
23176;BME280;19910;42.652;23.332;2023-06-10T05:49:45;94201.28;;;19.58;100.00
23176;BME280;19910;42.652;23.332;2023-06-10T05:52:13;94198.94;;;19.60;100.00
23176;BME280;19910;42.652;23.332;2023-06-10T05:54:40;94201.19;;;20.04;98.84
23176;BME280;19910;42.652;23.332;2023-06-10T05:57:08;94201.06;;;20.40;97.88
23176;BME280;19910;42.652;23.332;2023-06-10T05:59:35;94206.50;;;20.50;96.57
23176;BME280;19910;42.652;23.332;2023-06-10T06:02:02;94202.16;;;20.60;94.17
23176;BME280;19910;42.652;23.332;2023-06-10T06:04:29;94218.34;;;20.40;91.79
23176;BME280;19910;42.652;23.332;2023-06-10T06:06:56;94209.63;;;20.52;94.15
23176;BME280;19910;42.652;23.332;2023-06-10T06:09:22;94201.69;;;20.69;94.86
23176;BME280;19910;42.652;23.332;2023-06-10T06:11:49;94205.72;;;20.53;92.86
23176;BME280;19910;42.652;23.332;2023-06-10T06:14:18;94207.09;;;20.90;91.53
23176;BME280;19910;42.652;23.332;2023-06-10T06:16:44;94199.81;;;21.17;89.25
23176;BME280;19910;42.652;23.332;2023-06-10T06:19:11;94195.69;;;21.43;87.99
23176;BME280;19910;42.652;23.332;2023-06-10T06:21:38;94201.63;;;21.38;88.19
23176;BME280;19910;42.652;23.332;2023-06-10T06:24:05;94196.88;;;21.39;88.74
23176;BME280;19910;42.652;23.332;2023-06-10T06:26:32;94197.94;;;21.52;86.24
23176;BME280;19910;42.652;23.332;2023-06-10T06:28:59;94203.59;;;21.34;85.46
23176;BME280;19910;42.652;23.332;2023-06-10T06:31:27;94202.56;;;21.17;86.34
23176;BME280;19910;42.652;23.332;2023-06-10T06:33:54;94208.75;;;20.77;86.50
23176;BME280;19910;42.652;23.332;2023-06-10T06:36:21;94215.97;;;20.49;90.26
23176;BME280;19910;42.652;23.332;2023-06-10T06:38:47;94205.16;;;20.83;88.64
23176;BME280;19910;42.652;23.332;2023-06-10T06:41:14;94198.53;;;20.74;86.47
23176;BME280;19910;42.652;23.332;2023-06-10T06:43:41;94212.78;;;20.54;87.97
23176;BME280;19910;42.652;23.332;2023-06-10T06:46:08;94206.72;;;20.81;87.60
23176;BME280;19910;42.652;23.332;2023-06-10T06:48:36;94196.66;;;21.15;85.88
23176;BME280;19910;42.652;23.332;2023-06-10T06:51:03;94192.69;;;21.68;85.26
23176;BME280;19910;42.652;23.332;2023-06-10T06:53:30;94189.91;;;22.09;84.48
23176;BME280;19910;42.652;23.332;2023-06-10T06:55:57;94193.75;;;22.49;81.14
23176;BME280;19910;42.652;23.332;2023-06-10T06:58:23;94189.50;;;22.72;79.07
23176;BME280;19910;42.652;23.332;2023-06-10T07:00:50;94186.34;;;23.00;77.46
23176;BME280;19910;42.652;23.332;2023-06-10T07:03:17;94188.47;;;22.92;77.50
23176;BME280;19910;42.652;23.332;2023-06-10T07:05:45;94186.56;;;22.86;75.31
23176;BME280;19910;42.652;23.332;2023-06-10T07:08:12;94189.06;;;23.30;74.68
23176;BME280;19910;42.652;23.332;2023-06-10T07:10:39;94175.50;;;23.63;72.77
23176;BME280;19910;42.652;23.332;2023-06-10T07:13:05;94183.56;;;23.97;70.61
23176;BME280;19910;42.652;23.332;2023-06-10T07:15:32;94181.59;;;23.97;67.86
23176;BME280;19910;42.652;23.332;2023-06-10T07:17:59;94182.56;;;24.07;68.84
23176;BME280;19910;42.652;23.332;2023-06-10T07:20:26;94172.06;;;23.98;68.76
23176;BME280;19910;42.652;23.332;2023-06-10T07:22:54;94176.31;;;24.46;66.60
23176;BME280;19910;42.652;23.332;2023-06-10T07:25:20;94168.59;;;26.03;62.98
23176;BME280;19910;42.652;23.332;2023-06-10T07:27:47;94164.63;;;26.75;57.90
23176;BME280;19910;42.652;23.332;2023-06-10T07:30:14;94156.88;;;28.27;53.58
23176;BME280;19910;42.652;23.332;2023-06-10T07:32:41;94157.78;;;27.77;52.77
23176;BME280;19910;42.652;23.332;2023-06-10T07:35:09;94178.19;;;26.85;55.25
23176;BME280;19910;42.652;23.332;2023-06-10T07:37:36;94167.44;;;26.46;56.07
23176;BME280;19910;42.652;23.332;2023-06-10T07:40:06;94165.38;;;25.76;57.54
23176;BME280;19910;42.652;23.332;2023-06-10T07:42:35;94172.50;;;25.77;58.07
23176;BME280;19910;42.652;23.332;2023-06-10T07:45:02;94158.81;;;25.99;57.91
23176;BME280;19910;42.652;23.332;2023-06-10T07:47:29;94164.97;;;26.89;56.57
23176;BME280;19910;42.652;23.332;2023-06-10T07:49:56;94164.91;;;26.23;56.75
23176;BME280;19910;42.652;23.332;2023-06-10T07:52:23;94178.72;;;25.16;58.83
23176;BME280;19910;42.652;23.332;2023-06-10T07:54:49;94175.72;;;26.04;58.16
23176;BME280;19910;42.652;23.332;2023-06-10T07:57:19;94174.53;;;25.89;56.77
23176;BME280;19910;42.652;23.332;2023-06-10T07:59:45;94167.00;;;27.02;55.01
23176;BME280;19910;42.652;23.332;2023-06-10T08:02:12;94164.19;;;27.52;53.29
23176;BME280;19910;42.652;23.332;2023-06-10T08:04:39;94163.19;;;28.93;51.93
23176;BME280;19910;42.652;23.332;2023-06-10T08:07:06;94167.31;;;29.11;50.20
23176;BME280;19910;42.652;23.332;2023-06-10T08:09:32;94170.66;;;27.24;54.27
23176;BME280;19910;42.652;23.332;2023-06-10T08:12:00;94166.91;;;25.93;54.40
23176;BME280;19910;42.652;23.332;2023-06-10T08:14:28;94167.47;;;25.23;58.00
23176;BME280;19910;42.652;23.332;2023-06-10T08:16:55;94174.06;;;25.62;56.38
23176;BME280;19910;42.652;23.332;2023-06-10T08:19:21;94161.25;;;26.67;53.92
23176;BME280;19910;42.652;23.332;2023-06-10T08:21:48;94163.47;;;26.60;52.07
23176;BME280;19910;42.652;23.332;2023-06-10T08:24:15;94158.59;;;27.52;49.24
23176;BME280;19910;42.652;23.332;2023-06-10T08:26:43;94157.28;;;27.44;47.69
23176;BME280;19910;42.652;23.332;2023-06-10T08:29:11;94157.97;;;27.23;49.10
23176;BME280;19910;42.652;23.332;2023-06-10T08:31:43;94144.03;;;28.52;46.41
23176;BME280;19910;42.652;23.332;2023-06-10T08:34:10;94144.41;;;28.63;48.36
23176;BME280;19910;42.652;23.332;2023-06-10T08:36:37;94150.72;;;29.47;44.98
23176;BME280;19910;42.652;23.332;2023-06-10T08:39:04;94136.81;;;29.75;44.87
23176;BME280;19910;42.652;23.332;2023-06-10T08:41:35;94138.09;;;30.10;43.10
23176;BME280;19910;42.652;23.332;2023-06-10T08:44:06;94133.13;;;30.60;41.43
23176;BME280;19910;42.652;23.332;2023-06-10T08:46:34;94147.38;;;29.89;42.28
23176;BME280;19910;42.652;23.332;2023-06-10T08:49:05;94134.81;;;30.21;40.60
23176;BME280;19910;42.652;23.332;2023-06-10T08:51:34;94132.19;;;30.45;39.86
23176;BME280;19910;42.652;23.332;2023-06-10T08:54:05;94132.78;;;30.49;40.75
23176;BME280;19910;42.652;23.332;2023-06-10T08:56:37;94116.69;;;30.16;41.03
23176;BME280;19910;42.652;23.332;2023-06-10T08:59:05;94119.09;;;30.51;40.26
23176;BME280;19910;42.652;23.332;2023-06-10T09:01:32;94114.81;;;30.31;42.18
23176;BME280;19910;42.652;23.332;2023-06-10T09:04:00;94117.53;;;29.49;41.57
23176;BME280;19910;42.652;23.332;2023-06-10T09:06:29;94130.28;;;28.14;43.67
23176;BME280;19910;42.652;23.332;2023-06-10T09:08:58;94129.06;;;27.80;42.79
23176;BME280;19910;42.652;23.332;2023-06-10T09:11:25;94127.47;;;27.57;42.55
23176;BME280;19910;42.652;23.332;2023-06-10T09:13:52;94112.38;;;28.02;42.15
23176;BME280;19910;42.652;23.332;2023-06-10T09:16:19;94121.22;;;27.53;43.30
23176;BME280;19910;42.652;23.332;2023-06-10T09:18:46;94118.91;;;27.86;43.24
23176;BME280;19910;42.652;23.332;2023-06-10T09:21:12;94116.25;;;28.05;43.85
23176;BME280;19910;42.652;23.332;2023-06-10T09:23:41;94112.03;;;28.35;44.44
23176;BME280;19910;42.652;23.332;2023-06-10T09:26:09;94111.75;;;28.94;43.36
23176;BME280;19910;42.652;23.332;2023-06-10T09:28:36;94106.97;;;29.44;42.28
23176;BME280;19910;42.652;23.332;2023-06-10T09:31:05;94109.63;;;28.77;41.03
23176;BME280;19910;42.652;23.332;2023-06-10T09:33:32;94107.88;;;28.70;41.69
23176;BME280;19910;42.652;23.332;2023-06-10T09:36:01;94104.03;;;28.46;40.97
23176;BME280;19910;42.652;23.332;2023-06-10T09:38:34;94100.25;;;28.61;41.71
23176;BME280;19910;42.652;23.332;2023-06-10T09:41:03;94103.22;;;27.45;42.95
23176;BME280;19910;42.652;23.332;2023-06-10T09:43:40;94102.28;;;27.61;42.20
23176;BME280;19910;42.652;23.332;2023-06-10T09:46:14;94092.16;;;27.89;42.01
23176;BME280;19910;42.652;23.332;2023-06-10T09:48:41;94089.97;;;27.84;42.89
23176;BME280;19910;42.652;23.332;2023-06-10T09:51:10;94085.13;;;28.41;43.13
23176;BME280;19910;42.652;23.332;2023-06-10T09:53:37;94093.31;;;27.79;42.74
23176;BME280;19910;42.652;23.332;2023-06-10T09:56:05;94091.34;;;26.94;45.46
23176;BME280;19910;42.652;23.332;2023-06-10T09:58:36;94088.13;;;26.70;46.27
23176;BME280;19910;42.652;23.332;2023-06-10T10:01:07;94088.88;;;26.45;47.80
23176;BME280;19910;42.652;23.332;2023-06-10T10:03:43;94098.53;;;26.41;47.14
23176;BME280;19910;42.652;23.332;2023-06-10T10:06:11;94091.81;;;25.84;45.74
23176;BME280;19910;42.652;23.332;2023-06-10T10:08:37;94085.31;;;26.45;45.81
23176;BME280;19910;42.652;23.332;2023-06-10T10:11:05;94085.84;;;25.98;46.46
23176;BME280;19910;42.652;23.332;2023-06-10T10:13:34;94072.63;;;27.33;44.05
23176;BME280;19910;42.652;23.332;2023-06-10T10:16:04;94071.53;;;27.99;44.26
23176;BME280;19910;42.652;23.332;2023-06-10T10:18:33;94063.75;;;28.38;41.63
23176;BME280;19910;42.652;23.332;2023-06-10T10:21:07;94063.19;;;28.21;42.51
23176;BME280;19910;42.652;23.332;2023-06-10T10:23:40;94069.03;;;27.45;43.09
23176;BME280;19910;42.652;23.332;2023-06-10T10:26:13;94063.56;;;26.14;44.77
23176;BME280;19910;42.652;23.332;2023-06-10T10:28:45;94066.56;;;26.74;44.21
23176;BME280;19910;42.652;23.332;2023-06-10T10:31:18;94060.31;;;27.90;42.59
23176;BME280;19910;42.652;23.332;2023-06-10T10:33:54;94048.97;;;28.06;44.95
23176;BME280;19910;42.652;23.332;2023-06-10T10:36:22;94052.13;;;28.17;41.62
23176;BME280;19910;42.652;23.332;2023-06-10T10:38:49;94059.97;;;27.53;42.56
23176;BME280;19910;42.652;23.332;2023-06-10T10:41:18;94058.31;;;26.83;44.08
23176;BME280;19910;42.652;23.332;2023-06-10T10:43:46;94053.75;;;27.49;43.01
23176;BME280;19910;42.652;23.332;2023-06-10T10:46:16;94057.22;;;27.88;42.96
23176;BME280;19910;42.652;23.332;2023-06-10T10:48:44;94048.78;;;27.79;43.01
23176;BME280;19910;42.652;23.332;2023-06-10T10:51:11;94048.53;;;27.17;43.16
23176;BME280;19910;42.652;23.332;2023-06-10T10:53:38;94042.22;;;26.91;44.84
23176;BME280;19910;42.652;23.332;2023-06-10T10:56:05;94051.00;;;26.89;43.96
23176;BME280;19910;42.652;23.332;2023-06-10T10:58:34;94041.97;;;27.11;42.05
23176;BME280;19910;42.652;23.332;2023-06-10T11:01:10;94034.22;;;27.40;42.38
23176;BME280;19910;42.652;23.332;2023-06-10T11:03:42;94034.41;;;27.58;41.48
23176;BME280;19910;42.652;23.332;2023-06-10T11:06:12;94033.06;;;27.50;41.37
23176;BME280;19910;42.652;23.332;2023-06-10T11:08:46;94027.53;;;27.94;40.14
23176;BME280;19910;42.652;23.332;2023-06-10T11:11:20;94026.50;;;28.01;43.08
23176;BME280;19910;42.652;23.332;2023-06-10T11:14:07;94026.94;;;27.77;42.64
23176;BME280;19910;42.652;23.332;2023-06-10T11:16:39;94018.38;;;26.27;46.35
23176;BME280;19910;42.652;23.332;2023-06-10T11:19:06;94025.44;;;25.61;46.65
23176;BME280;19910;42.652;23.332;2023-06-10T11:21:45;94021.00;;;26.34;48.77
23176;BME280;19910;42.652;23.332;2023-06-10T11:24:23;94012.03;;;27.15;45.77
23176;BME280;19910;42.652;23.332;2023-06-10T11:26:51;94011.47;;;27.76;44.09
23176;BME280;19910;42.652;23.332;2023-06-10T11:29:19;93999.38;;;28.45;42.98
23176;BME280;19910;42.652;23.332;2023-06-10T11:31:49;93997.63;;;28.69;42.77
23176;BME280;19910;42.652;23.332;2023-06-10T11:34:25;94010.78;;;28.16;43.36
23176;BME280;19910;42.652;23.332;2023-06-10T11:36:53;93998.22;;;28.73;41.92
23176;BME280;19910;42.652;23.332;2023-06-10T11:39:21;94002.91;;;28.14;40.67
23176;BME280;19910;42.652;23.332;2023-06-10T11:41:51;93996.88;;;27.85;41.36
23176;BME280;19910;42.652;23.332;2023-06-10T11:44:19;93996.31;;;28.52;40.61
23176;BME280;19910;42.652;23.332;2023-06-10T11:46:48;93982.41;;;29.10;40.92
23176;BME280;19910;42.652;23.332;2023-06-10T11:49:17;93988.28;;;28.23;43.31
23176;BME280;19910;42.652;23.332;2023-06-10T11:51:43;93991.81;;;27.71;44.45
23176;BME280;19910;42.652;23.332;2023-06-10T11:54:14;93986.13;;;27.18;44.01
23176;BME280;19910;42.652;23.332;2023-06-10T11:56:42;93983.53;;;26.64;44.28
23176;BME280;19910;42.652;23.332;2023-06-10T11:59:09;93998.19;;;26.51;44.97
23176;BME280;19910;42.652;23.332;2023-06-10T12:01:39;93990.16;;;26.79;44.64
23176;BME280;19910;42.652;23.332;2023-06-10T12:04:09;93983.06;;;26.52;44.77
23176;BME280;19910;42.652;23.332;2023-06-10T12:06:41;93986.34;;;26.51;44.66
23176;BME280;19910;42.652;23.332;2023-06-10T12:09:14;93983.19;;;26.62;45.63
23176;BME280;19910;42.652;23.332;2023-06-10T12:11:42;93988.41;;;26.72;44.71
23176;BME280;19910;42.652;23.332;2023-06-10T12:14:09;93979.16;;;27.01;45.99
23176;BME280;19910;42.652;23.332;2023-06-10T12:16:37;93986.97;;;27.28;43.61
23176;BME280;19910;42.652;23.332;2023-06-10T12:19:05;93985.50;;;26.88;45.35
23176;BME280;19910;42.652;23.332;2023-06-10T12:21:32;93978.66;;;27.15;44.74
23176;BME280;19910;42.652;23.332;2023-06-10T12:24:05;93980.44;;;26.62;43.95
23176;BME280;19910;42.652;23.332;2023-06-10T12:26:36;93974.59;;;26.81;42.35
23176;BME280;19910;42.652;23.332;2023-06-10T12:29:15;93968.44;;;27.12;43.48
23176;BME280;19910;42.652;23.332;2023-06-10T12:31:58;93970.97;;;26.59;41.98
23176;BME280;19910;42.652;23.332;2023-06-10T12:34:36;93965.91;;;26.92;40.34
23176;BME280;19910;42.652;23.332;2023-06-10T12:37:05;93968.34;;;27.37;42.04
23176;BME280;19910;42.652;23.332;2023-06-10T12:39:32;93960.13;;;27.99;41.36
23176;BME280;19910;42.652;23.332;2023-06-10T12:42:00;93960.34;;;27.83;39.31
23176;BME280;19910;42.652;23.332;2023-06-10T12:44:32;93965.53;;;28.24;40.36
23176;BME280;19910;42.652;23.332;2023-06-10T12:47:00;93960.91;;;28.30;40.54
23176;BME280;19910;42.652;23.332;2023-06-10T12:49:27;93957.75;;;27.45;42.05
23176;BME280;19910;42.652;23.332;2023-06-10T12:51:54;93949.84;;;27.43;41.09
23176;BME280;19910;42.652;23.332;2023-06-10T12:54:20;93961.22;;;27.36;40.97